Time;durP1;ratioP1;P1;durP2;ratioP2;P2;SDS_P1;SDS_P2;PMS_P1;PMS_P2;Temp;Humidity;BMP_temperature;BMP_pressure;BME280_temperature;BME280_humidity;BME280_pressure;Samples;Min_cycle;Max_cycle;Signal;HPM_P1;HPM_P2
2023/09/27 00:01:49;;;;;;;4.22;0.68;;;;;;;19.84;66.30;101115.22;5066002;28;20126;-70
2023/09/27 00:04:15;;;;;;;2.67;0.50;;;;;;;19.85;66.40;101111.53;5066243;28;20028;-71
2023/09/27 00:06:41;;;;;;;2.55;0.60;;;;;;;19.87;65.30;101114.81;5063861;28;20025;-71
2023/09/27 00:09:08;;;;;;;1.95;0.77;;;;;;;19.87;65.43;101114.81;5058875;28;20032;-70
2023/09/27 00:11:34;;;;;;;1.90;0.68;;;;;;;19.93;66.42;101118.53;5064988;28;20075;-71
2023/09/27 00:14:00;;;;;;;2.03;0.65;;;;;;;19.84;66.59;101116.03;5065843;28;20508;-71
2023/09/27 00:16:25;;;;;;;2.13;0.82;;;;;;;19.80;66.16;101114.78;5068993;28;20068;-71
2023/09/27 00:18:51;;;;;;;1.50;0.57;;;;;;;19.81;67.16;101113.75;5062430;28;20067;-71
2023/09/27 00:21:16;;;;;;;2.70;0.80;;;;;;;19.81;67.91;101118.25;5064662;28;20113;-71
2023/09/27 00:23:42;;;;;;;6.40;0.80;;;;;;;19.66;68.66;101112.19;5058883;28;20024;-71
2023/09/27 00:26:07;;;;;;;3.20;0.52;;;;;;;19.62;68.03;101110.91;5063699;28;20020;-71
2023/09/27 00:28:33;;;;;;;2.33;0.50;;;;;;;19.58;68.09;101110.47;5063477;28;20502;-72
2023/09/27 00:30:58;;;;;;;3.20;0.75;;;;;;;19.57;65.93;101106.19;5065964;28;20400;-71
2023/09/27 00:33:23;;;;;;;3.55;0.60;;;;;;;19.59;65.66;101106.00;5071536;28;20127;-71
2023/09/27 00:35:50;;;;;;;1.83;0.65;;;;;;;19.57;66.07;101105.38;5068544;28;20038;-69
2023/09/27 00:38:15;;;;;;;4.15;0.80;;;;;;;19.60;64.77;101102.34;5065611;28;20033;-70
2023/09/27 00:40:48;;;;;;;0.90;0.40;;;;;;;19.61;64.90;101104.00;5062192;28;20031;-70
2023/09/27 00:43:30;;;;;;;1.48;0.40;;;;;;;19.60;64.27;101097.06;5064823;28;20025;-71
2023/09/27 00:45:59;;;;;;;1.20;0.50;;;;;;;19.62;65.00;101105.63;5066362;28;20128;-70
2023/09/27 00:48:25;;;;;;;3.60;1.02;;;;;;;19.57;66.15;101105.38;5071636;28;20478;-70
2023/09/27 00:50:53;;;;;;;2.78;0.88;;;;;;;19.66;64.67;101101.59;5068785;28;20119;-69
2023/09/27 00:53:20;;;;;;;2.42;0.50;;;;;;;19.71;65.23;101104.50;5069987;28;20029;-71
2023/09/27 00:55:46;;;;;;;2.72;0.40;;;;;;;19.66;64.87;101106.91;5070833;28;20143;-71
2023/09/27 00:58:18;;;;;;;1.30;0.60;;;;;;;19.67;64.08;101103.25;5071184;28;20551;-69
2023/09/27 01:00:44;;;;;;;1.15;0.40;;;;;;;19.66;64.84;101098.97;5070418;28;20059;-69
2023/09/27 01:03:10;;;;;;;1.70;0.50;;;;;;;19.63;64.69;101094.06;5073529;28;20064;-70
2023/09/27 01:05:36;;;;;;;2.80;0.55;;;;;;;19.55;64.80;101090.53;5065670;28;20040;-70
2023/09/27 01:08:03;;;;;;;4.25;0.70;;;;;;;19.55;64.42;101085.25;5072061;28;20034;-71
2023/09/27 01:10:28;;;;;;;3.72;0.60;;;;;;;19.45;64.80;101082.03;5069495;28;20025;-70
2023/09/27 01:12:54;;;;;;;1.10;0.60;;;;;;;19.46;65.05;101080.22;5069068;28;20544;-69
2023/09/27 01:15:19;;;;;;;1.50;0.65;;;;;;;19.45;65.61;101084.69;5066327;28;20036;-70
2023/09/27 01:17:59;;;;;;;1.33;0.60;;;;;;;19.41;65.00;101083.41;5061469;28;20033;-71
2023/09/27 01:20:26;;;;;;;3.30;0.75;;;;;;;19.41;65.05;101082.59;5069167;28;20400;-69
2023/09/27 01:23:05;;;;;;;4.18;0.68;;;;;;;19.47;63.64;101079.22;5061133;28;20495;-70
2023/09/27 01:25:36;;;;;;;2.55;0.90;;;;;;;19.58;63.60;101078.75;5065700;28;20039;-70
2023/09/27 01:28:09;;;;;;;1.65;0.52;;;;;;;19.50;64.71;101076.19;5064185;28;20037;-69
2023/09/27 01:30:36;;;;;;;5.32;0.50;;;;;;;19.42;65.53;101074.50;5065858;28;20078;-70
2023/09/27 01:33:06;;;;;;;3.75;0.65;;;;;;;19.25;66.52;101065.19;5064129;28;20479;-70
2023/09/27 01:35:36;;;;;;;4.13;0.50;;;;;;;19.09;67.03;101068.03;5062624;28;20045;-69
2023/09/27 01:38:02;;;;;;;2.65;0.40;;;;;;;19.01;67.48;101070.78;5060899;28;20396;-69
2023/09/27 01:40:31;;;;;;;1.40;0.43;;;;;;;18.99;68.00;101075.41;5062194;28;20044;-70
2023/09/27 01:43:01;;;;;;;2.97;0.50;;;;;;;18.95;67.33;101066.22;5061444;28;20126;-70
2023/09/27 01:45:27;;;;;;;5.68;0.50;;;;;;;18.98;66.30;101065.88;5059503;28;20031;-70
2023/09/27 01:47:53;;;;;;;2.00;0.50;;;;;;;19.15;66.09;101067.28;5068807;28;20033;-70
2023/09/27 01:50:19;;;;;;;1.88;0.60;;;;;;;19.03;67.27;101059.03;5064408;28;20392;-70
2023/09/27 01:52:46;;;;;;;4.93;0.40;;;;;;;18.85;67.77;101072.66;5062398;28;20476;-69
2023/09/27 01:55:12;;;;;;;2.70;0.77;;;;;;;18.69;68.16;101062.28;5066274;28;20564;-70
2023/09/27 01:57:37;;;;;;;6.28;0.77;;;;;;;18.56;69.06;101064.69;5057851;28;20068;-69
2023/09/27 02:00:08;;;;;;;3.10;0.45;;;;;;;18.43;69.94;101057.41;5063960;28;20522;-70
2023/09/27 02:02:34;;;;;;;1.27;0.38;;;;;;;18.49;69.55;101061.13;5067913;28;20487;-69
2023/09/27 02:04:59;;;;;;;2.47;0.70;;;;;;;18.57;68.39;101061.88;5062784;28;20036;-70
2023/09/27 02:07:25;;;;;;;4.28;0.60;;;;;;;18.53;68.95;101062.41;5065602;28;20038;-69
2023/09/27 02:09:50;;;;;;;2.20;0.63;;;;;;;18.55;68.72;101047.22;5060316;28;20040;-69
2023/09/27 02:12:16;;;;;;;1.95;0.60;;;;;;;18.49;69.71;101047.94;5064793;28;20028;-69
2023/09/27 02:14:41;;;;;;;0.98;0.40;;;;;;;18.42;69.45;101054.97;5063135;28;20029;-70
2023/09/27 02:17:07;;;;;;;1.63;0.65;;;;;;;18.50;68.21;101042.47;5066153;28;20025;-70
2023/09/27 02:19:34;;;;;;;3.08;0.55;;;;;;;18.65;68.08;101044.34;5069879;28;20041;-69
2023/09/27 02:22:00;;;;;;;4.13;1.02;;;;;;;18.47;69.45;101042.84;5085486;28;20036;-69
2023/09/27 02:24:25;;;;;;;1.95;0.82;;;;;;;18.34;70.26;101032.13;5059495;28;20047;-71
2023/09/27 02:26:53;;;;;;;2.90;0.55;;;;;;;18.21;70.71;101040.66;5070047;28;20033;-70
2023/09/27 02:29:19;;;;;;;3.08;0.70;;;;;;;18.15;71.02;101044.03;5070580;28;20482;-69
2023/09/27 02:31:44;;;;;;;1.13;0.40;;;;;;;18.05;71.35;101042.63;5075729;28;20360;-70
2023/09/27 02:34:12;;;;;;;2.45;0.95;;;;;;;18.04;71.21;101047.09;5072381;28;20032;-68
2023/09/27 02:36:38;;;;;;;1.63;0.60;;;;;;;17.94;72.07;101043.91;5069720;28;20125;-70
2023/09/27 02:39:04;;;;;;;1.55;0.77;;;;;;;17.91;72.19;101041.63;5069583;28;20044;-69
2023/09/27 02:41:30;;;;;;;2.03;0.80;;;;;;;17.82;72.73;101046.16;5067945;28;20479;-70
2023/09/27 02:43:55;;;;;;;5.00;0.75;;;;;;;17.78;73.00;101047.50;5068669;28;20020;-68
2023/09/27 02:46:21;;;;;;;3.38;0.60;;;;;;;17.79;72.84;101040.41;5068538;28;20058;-69
2023/09/27 02:48:46;;;;;;;3.88;0.70;;;;;;;17.81;72.63;101041.88;5068940;28;20031;-70
2023/09/27 02:51:15;;;;;;;1.17;0.60;;;;;;;17.90;72.52;101042.63;5067778;28;20034;-71
2023/09/27 02:53:44;;;;;;;3.50;0.50;;;;;;;17.84;72.99;101038.88;5065670;28;20393;-70
2023/09/27 02:56:11;;;;;;;3.08;0.98;;;;;;;17.77;73.31;101045.03;5065551;28;20040;-70
2023/09/27 02:58:37;;;;;;;2.13;0.70;;;;;;;17.71;73.55;101065.00;5064653;28;20131;-69
2023/09/27 03:01:04;;;;;;;1.90;1.00;;;;;;;17.73;73.82;101051.66;5069573;28;20383;-70
2023/09/27 03:03:30;;;;;;;1.23;0.63;;;;;;;17.66;74.39;101046.28;5068091;28;20024;-69
2023/09/27 03:05:57;;;;;;;4.45;1.23;;;;;;;17.57;74.25;101056.00;5066589;28;20400;-68
2023/09/27 03:08:24;;;;;;;1.95;0.63;;;;;;;17.53;74.78;101054.72;5063455;28;20541;-69
2023/09/27 03:10:49;;;;;;;3.00;0.90;;;;;;;17.47;75.00;101052.00;5068404;28;20498;-68
2023/09/27 03:13:15;;;;;;;3.08;0.60;;;;;;;17.40;75.44;101049.22;5071674;28;20127;-69
2023/09/27 03:15:41;;;;;;;1.38;0.73;;;;;;;17.36;75.93;101047.94;5060966;28;20059;-69
2023/09/27 03:18:07;;;;;;;4.47;0.57;;;;;;;17.35;75.58;101045.47;5066082;28;20056;-69
2023/09/27 03:20:33;;;;;;;0.82;0.70;;;;;;;17.39;75.44;101052.03;5066000;28;20090;-69
2023/09/27 03:22:58;;;;;;;2.17;0.95;;;;;;;17.48;75.09;101054.47;5064130;28;20045;-69
2023/09/27 03:25:24;;;;;;;2.00;0.68;;;;;;;17.49;75.33;101063.97;5068621;28;20055;-70
2023/09/27 03:27:49;;;;;;;1.95;0.88;;;;;;;17.40;75.56;101059.78;5064448;28;20020;-70
2023/09/27 03:30:16;;;;;;;1.88;0.50;;;;;;;17.37;76.23;101056.66;5066889;28;20071;-70
2023/09/27 03:32:42;;;;;;;2.15;0.70;;;;;;;17.33;76.78;101056.19;5061773;28;20071;-70
2023/09/27 03:35:08;;;;;;;2.55;1.05;;;;;;;17.22;77.83;101062.66;5062997;28;20052;-70
2023/09/27 03:37:34;;;;;;;4.47;0.77;;;;;;;17.16;78.72;101062.53;5062934;28;20063;-70
2023/09/27 03:40:01;;;;;;;1.73;1.00;;;;;;;17.02;78.71;101065.88;5060088;28;20044;-70
2023/09/27 03:42:26;;;;;;;11.65;1.02;;;;;;;17.03;79.38;101075.44;5063154;28;20103;-69
2023/09/27 03:44:54;;;;;;;1.77;0.70;;;;;;;16.99;80.08;101076.78;5069311;28;20038;-70
2023/09/27 03:47:20;;;;;;;3.55;0.90;;;;;;;16.88;80.60;101057.75;5068545;28;20029;-69
2023/09/27 03:49:45;;;;;;;1.25;0.75;;;;;;;16.89;79.29;101069.91;5065174;28;20035;-69
2023/09/27 03:52:11;;;;;;;1.83;0.77;;;;;;;16.90;79.07;101068.09;5062668;28;20045;-68
2023/09/27 03:54:37;;;;;;;1.58;0.80;;;;;;;16.91;79.12;101060.03;5062337;28;20372;-69
2023/09/27 03:57:02;;;;;;;2.47;0.80;;;;;;;16.89;79.04;101062.03;5063096;28;20037;-69
2023/09/27 03:59:28;;;;;;;4.78;0.60;;;;;;;16.92;78.93;101066.94;5061914;28;20027;-69
2023/09/27 04:01:55;;;;;;;1.63;0.88;;;;;;;16.99;79.17;101058.38;5060475;28;20465;-69
2023/09/27 04:04:21;;;;;;;2.05;0.68;;;;;;;16.96;78.80;101063.97;5062944;28;20093;-69
2023/09/27 04:06:46;;;;;;;3.50;0.70;;;;;;;16.90;79.41;101062.84;5067641;28;20032;-70
2023/09/27 04:09:12;;;;;;;6.25;0.80;;;;;;;16.87;79.73;101058.75;5060425;28;20032;-70
2023/09/27 04:11:38;;;;;;;2.72;1.02;;;;;;;16.88;80.56;101065.66;5062181;28;20041;-70
2023/09/27 04:14:04;;;;;;;4.28;0.73;;;;;;;16.78;80.84;101066.84;5060444;28;20036;-70
2023/09/27 04:16:30;;;;;;;1.63;0.52;;;;;;;16.79;80.05;101071.94;5063087;28;20052;-69
2023/09/27 04:18:58;;;;;;;3.53;0.60;;;;;;;16.79;79.09;101066.66;5057290;28;20042;-69
2023/09/27 04:21:25;;;;;;;2.05;0.80;;;;;;;16.80;79.07;101068.31;5069755;28;20131;-69
2023/09/27 04:23:57;;;;;;;2.50;0.98;;;;;;;16.81;79.01;101075.22;5054950;28;20035;-70
2023/09/27 04:26:25;;;;;;;1.50;0.70;;;;;;;16.79;79.27;101068.47;5065015;28;20030;-71
2023/09/27 04:28:52;;;;;;;2.67;0.73;;;;;;;16.78;80.03;101085.25;5069569;28;20035;-70
2023/09/27 04:31:18;;;;;;;3.45;0.60;;;;;;;16.75;79.69;101081.16;5072423;28;20038;-70
2023/09/27 04:33:44;;;;;;;4.03;0.70;;;;;;;16.85;78.69;101076.50;5068872;28;20025;-69
2023/09/27 04:36:17;;;;;;;2.78;0.77;;;;;;;16.81;78.79;101074.38;5068275;28;20031;-69
2023/09/27 04:38:47;;;;;;;1.90;0.70;;;;;;;16.68;80.02;101074.91;5066124;28;20032;-69
2023/09/27 04:41:17;;;;;;;4.03;1.10;;;;;;;16.58;80.51;101074.25;5067370;28;20032;-69
2023/09/27 04:43:43;;;;;;;1.58;0.43;;;;;;;16.51;80.80;101075.94;5066484;28;20480;-69
2023/09/27 04:46:16;;;;;;;1.90;0.60;;;;;;;16.50;80.50;101071.66;5065263;28;20047;-69
2023/09/27 04:48:42;;;;;;;4.30;1.02;;;;;;;16.47;81.01;101075.47;5065321;28;20032;-69
2023/09/27 04:51:08;;;;;;;2.42;0.90;;;;;;;16.40;81.30;101066.59;5068419;28;20028;-69
2023/09/27 04:53:37;;;;;;;1.90;0.80;;;;;;;16.39;81.41;101083.34;5065487;28;20109;-69
2023/09/27 04:56:11;;;;;;;1.60;0.50;;;;;;;16.41;81.11;101073.50;5067904;28;20125;-69
2023/09/27 04:58:38;;;;;;;1.75;0.82;;;;;;;16.51;80.97;101089.09;5067126;28;20040;-70
2023/09/27 05:01:05;;;;;;;3.75;0.98;;;;;;;16.53;80.89;101089.75;5067919;28;20036;-70
2023/09/27 05:03:31;;;;;;;2.45;1.20;;;;;;;16.54;81.53;101088.75;5068367;28;20032;-70
2023/09/27 05:05:56;;;;;;;4.15;0.80;;;;;;;16.54;81.42;101089.56;5066694;28;20056;-69
2023/09/27 05:08:22;;;;;;;2.13;0.85;;;;;;;16.58;81.15;101087.41;5065282;28;20035;-70
2023/09/27 05:10:47;;;;;;;2.25;0.90;;;;;;;16.65;81.51;101088.41;5062957;28;20084;-70
2023/09/27 05:13:12;;;;;;;1.20;0.60;;;;;;;16.67;81.13;101086.44;5079801;28;20044;-69
2023/09/27 05:15:38;;;;;;;3.67;0.88;;;;;;;16.65;80.29;101084.94;5062327;28;20382;-69
2023/09/27 05:18:04;;;;;;;1.30;0.60;;;;;;;16.61;80.05;101079.19;5067055;28;20035;-72
2023/09/27 05:20:29;;;;;;;4.22;0.85;;;;;;;16.62;80.38;101075.56;5085658;28;20037;-69
2023/09/27 05:22:55;;;;;;;4.15;0.73;;;;;;;16.59;80.11;101071.44;5067813;28;20029;-70
2023/09/27 05:25:21;;;;;;;2.40;0.65;;;;;;;16.63;80.04;101071.13;5068408;28;20028;-71
2023/09/27 05:27:46;;;;;;;1.35;0.88;;;;;;;16.66;80.23;101071.63;5077790;28;20059;-69
2023/09/27 05:30:12;;;;;;;1.73;0.80;;;;;;;16.69;79.66;101067.84;5070952;28;20387;-70
2023/09/27 05:32:37;;;;;;;2.03;0.65;;;;;;;16.69;79.56;101068.66;5066914;28;20094;-68
2023/09/27 05:35:04;;;;;;;6.22;0.70;;;;;;;16.70;79.58;101078.19;5066137;28;20024;-69
2023/09/27 05:37:30;;;;;;;4.32;0.80;;;;;;;16.68;79.47;101074.91;5069736;28;20064;-71
2023/09/27 05:39:56;;;;;;;2.75;0.52;;;;;;;16.69;79.48;101076.56;5072585;28;20392;-69
2023/09/27 05:42:21;;;;;;;3.70;1.02;;;;;;;16.74;79.38;101078.69;5063590;28;20093;-70
2023/09/27 05:44:47;;;;;;;2.47;0.90;;;;;;;16.79;79.22;101087.72;5064765;28;20039;-70
2023/09/27 05:47:12;;;;;;;2.42;0.70;;;;;;;16.87;79.28;101089.50;5063912;28;20039;-71
2023/09/27 05:49:38;;;;;;;1.67;0.80;;;;;;;16.91;78.36;101091.63;5066265;28;20052;-70
2023/09/27 05:52:04;;;;;;;3.95;0.60;;;;;;;16.95;78.57;101092.09;5067047;28;20037;-69
2023/09/27 05:54:29;;;;;;;1.50;0.77;;;;;;;17.01;77.98;101101.13;5068472;28;20042;-70
2023/09/27 05:56:55;;;;;;;1.48;0.63;;;;;;;17.01;78.12;101095.88;5092020;28;20043;-71
2023/09/27 05:59:24;;;;;;;1.77;1.10;;;;;;;17.01;79.35;101095.88;5060990;28;20032;-70
2023/09/27 06:01:51;;;;;;;2.90;0.75;;;;;;;17.07;78.09;101089.88;5061828;28;20136;-69
2023/09/27 06:04:17;;;;;;;2.17;0.85;;;;;;;17.09;78.68;101085.28;5076794;28;20140;-71
2023/09/27 06:06:43;;;;;;;4.72;1.05;;;;;;;17.14;78.90;101089.03;5067018;28;20033;-72
2023/09/27 06:09:11;;;;;;;2.47;0.60;;;;;;;17.15;79.21;101100.38;5071247;28;20028;-72
2023/09/27 06:11:37;;;;;;;4.00;0.70;;;;;;;17.23;77.88;101097.72;5066577;28;20436;-71
2023/09/27 06:14:05;;;;;;;1.25;0.60;;;;;;;17.31;77.41;101102.94;5064784;28;20028;-72
2023/09/27 06:16:31;;;;;;;1.50;0.80;;;;;;;17.45;76.80;101098.75;5058247;28;20131;-72
2023/09/27 06:18:56;;;;;;;3.50;1.08;;;;;;;17.51;76.27;101101.50;5062127;28;20172;-69
2023/09/27 06:21:22;;;;;;;3.65;0.75;;;;;;;17.54;76.28;101103.78;5058985;28;20032;-71
2023/09/27 06:23:47;;;;;;;4.18;0.80;;;;;;;17.62;77.71;101099.47;5056847;28;20047;-71
2023/09/27 06:26:14;;;;;;;5.15;0.50;;;;;;;17.63;77.47;101101.91;5062701;28;20574;-71
2023/09/27 06:28:39;;;;;;;5.18;0.70;;;;;;;17.73;78.14;101101.72;5056461;28;20052;-71
2023/09/27 06:31:06;;;;;;;1.48;0.70;;;;;;;17.78;78.62;101097.56;5060822;28;20067;-71
2023/09/27 06:33:39;;;;;;;5.32;1.13;;;;;;;17.85;77.08;101100.31;5071528;28;20056;-72
2023/09/27 06:36:08;;;;;;;2.60;0.82;;;;;;;17.92;79.05;101106.53;5055157;28;20431;-72
2023/09/27 06:38:34;;;;;;;1.60;0.73;;;;;;;17.91;79.86;101110.16;5056585;28;20027;-71
2023/09/27 06:41:00;;;;;;;2.75;0.60;;;;;;;17.88;80.01;101113.97;5061214;28;20020;-71
2023/09/27 06:43:28;;;;;;;1.20;0.60;;;;;;;17.92;80.20;101109.16;5061295;28;20032;-70
2023/09/27 06:45:54;;;;;;;1.75;0.70;;;;;;;18.03;79.33;101115.81;5065623;28;20561;-69
2023/09/27 06:48:20;;;;;;;1.55;0.70;;;;;;;18.17;77.11;101112.41;5059665;28;20032;-70
2023/09/27 06:50:46;;;;;;;3.42;0.70;;;;;;;18.24;77.84;101122.06;5065532;28;20383;-69
2023/09/27 06:53:13;;;;;;;6.50;1.00;;;;;;;18.26;76.83;101113.16;5071791;28;20024;-69
2023/09/27 06:55:39;;;;;;;2.88;0.88;;;;;;;18.34;77.65;101123.63;5067095;28;20124;-69
2023/09/27 06:58:04;;;;;;;2.53;0.60;;;;;;;18.47;75.92;101134.38;5074151;28;20453;-69
2023/09/27 07:00:30;;;;;;;2.03;0.77;;;;;;;18.61;74.22;101123.06;5068157;28;20514;-69
2023/09/27 07:02:55;;;;;;;3.55;1.35;;;;;;;18.73;75.02;101126.91;5066232;28;20037;-68
2023/09/27 07:05:21;;;;;;;2.17;0.68;;;;;;;18.85;73.95;101125.44;5070279;28;20032;-69
2023/09/27 07:07:51;;;;;;;1.65;0.70;;;;;;;19.00;72.69;101122.78;5071172;28;20028;-68
2023/09/27 07:10:17;;;;;;;5.15;0.55;;;;;;;19.13;74.07;101116.84;5074856;28;20028;-66
2023/09/27 07:12:43;;;;;;;1.70;0.63;;;;;;;19.26;69.71;101124.94;5068957;28;20048;-70
2023/09/27 07:15:10;;;;;;;2.42;0.68;;;;;;;19.44;72.17;101130.63;5070744;28;20047;-67
2023/09/27 07:17:38;;;;;;;2.90;0.40;;;;;;;19.44;72.51;101129.78;5069407;28;20395;-69
2023/09/27 07:20:14;;;;;;;1.15;0.50;;;;;;;19.39;72.69;101122.44;5070318;28;20068;-69
2023/09/27 07:22:40;;;;;;;2.15;1.10;;;;;;;19.38;71.07;101126.06;5066827;28;20055;-69
2023/09/27 07:25:09;;;;;;;2.88;0.73;;;;;;;19.43;70.96;101126.34;5069200;28;20032;-68
2023/09/27 07:27:35;;;;;;;3.92;0.57;;;;;;;19.56;70.91;101117.78;5072140;28;20107;-69
2023/09/27 07:30:01;;;;;;;2.17;0.68;;;;;;;19.74;69.30;101122.63;5069025;28;20427;-70
2023/09/27 07:32:26;;;;;;;2.50;0.85;;;;;;;19.94;69.60;101133.38;5067249;28;20123;-69
2023/09/27 07:34:52;;;;;;;2.15;0.65;;;;;;;19.96;71.12;101132.19;5068474;28;20035;-69
2023/09/27 07:37:18;;;;;;;1.27;0.60;;;;;;;20.11;68.19;101134.78;5068650;28;20036;-69
2023/09/27 07:39:44;;;;;;;2.42;0.90;;;;;;;20.23;68.38;101130.59;5066267;28;20037;-69
2023/09/27 07:42:11;;;;;;;1.33;0.50;;;;;;;20.28;69.23;101127.38;5067872;28;20032;-69
2023/09/27 07:44:39;;;;;;;1.95;0.68;;;;;;;20.29;68.16;101129.84;5065471;28;20479;-70
2023/09/27 07:47:04;;;;;;;1.77;0.50;;;;;;;20.43;67.49;101130.75;5067571;28;20042;-69
2023/09/27 07:49:30;;;;;;;5.82;0.80;;;;;;;20.57;67.58;101113.16;5065164;28;20033;-69
2023/09/27 07:51:55;;;;;;;2.45;0.60;;;;;;;20.64;67.84;101122.78;5066759;28;20036;-68
2023/09/27 07:54:23;;;;;;;2.03;0.50;;;;;;;20.68;67.86;101112.63;5065575;28;20024;-69
2023/09/27 07:56:50;;;;;;;1.08;0.40;;;;;;;20.87;68.13;101112.69;5064880;28;20049;-69
2023/09/27 07:59:17;;;;;;;4.13;1.05;;;;;;;20.86;66.43;101103.13;5066272;28;20048;-69
2023/09/27 08:01:42;;;;;;;4.75;0.90;;;;;;;20.96;67.24;101105.41;5065289;28;20039;-69
2023/09/27 08:04:12;;;;;;;1.70;0.55;;;;;;;21.19;64.70;101099.81;5065304;28;20502;-69
2023/09/27 08:06:38;;;;;;;3.22;0.95;;;;;;;21.39;67.21;101107.84;5062587;28;20060;-70
2023/09/27 08:09:06;;;;;;;1.77;0.50;;;;;;;21.50;66.42;101115.22;5060022;28;20476;-69
2023/09/27 08:11:31;;;;;;;1.40;0.60;;;;;;;21.67;65.78;101116.47;5062746;28;20075;-69
2023/09/27 08:13:57;;;;;;;1.92;0.73;;;;;;;21.81;65.93;101115.47;5064144;28;20071;-68
2023/09/27 08:16:23;;;;;;;1.70;0.52;;;;;;;21.84;67.95;101107.09;5063641;28;20036;-69
2023/09/27 08:18:48;;;;;;;1.35;0.60;;;;;;;21.91;66.69;101099.16;5062261;28;20499;-69
2023/09/27 08:21:13;;;;;;;1.70;0.50;;;;;;;22.14;65.62;101109.41;5065677;28;20029;-69
2023/09/27 08:23:40;;;;;;;1.63;0.60;;;;;;;22.34;65.40;101099.56;5060445;28;20032;-69
2023/09/27 08:26:05;;;;;;;2.67;0.50;;;;;;;22.73;62.83;101101.31;5064551;28;20056;-68
2023/09/27 08:28:31;;;;;;;1.35;0.40;;;;;;;23.05;62.77;101104.91;5061121;28;20075;-66
2023/09/27 08:31:00;;;;;;;2.95;0.38;;;;;;;23.44;57.27;101108.41;5061708;28;20445;-69
2023/09/27 08:33:27;;;;;;;3.75;0.57;;;;;;;23.44;62.12;101109.22;5064327;28;20081;-68
2023/09/27 08:35:53;;;;;;;2.03;0.60;;;;;;;23.10;64.49;101105.09;5060471;28;20082;-67
2023/09/27 08:38:19;;;;;;;2.72;0.95;;;;;;;22.76;67.01;101108.84;5061608;28;20037;-69
2023/09/27 08:40:47;;;;;;;2.33;0.60;;;;;;;22.60;68.21;101113.81;5058666;28;20480;-71
2023/09/27 08:43:14;;;;;;;1.63;0.60;;;;;;;22.53;69.33;101113.84;5061333;28;20033;-67
2023/09/27 08:45:40;;;;;;;1.65;0.40;;;;;;;22.51;68.92;101113.22;5057729;28;20033;-67
2023/09/27 08:48:13;;;;;;;2.65;0.68;;;;;;;22.48;68.99;101108.31;5059866;28;20028;-67
2023/09/27 08:50:39;;;;;;;1.90;0.50;;;;;;;22.53;69.17;101113.84;5059944;28;20037;-67
2023/09/27 08:53:04;;;;;;;2.38;0.70;;;;;;;22.48;69.51;101110.97;5063056;28;20071;-67
2023/09/27 08:55:31;;;;;;;2.50;0.70;;;;;;;22.41;69.17;101116.31;5065353;28;20082;-69
2023/09/27 08:57:57;;;;;;;1.15;0.40;;;;;;;22.37;68.84;101120.38;5060802;28;20035;-67
2023/09/27 09:00:26;;;;;;;2.63;0.65;;;;;;;22.42;68.40;101114.47;5058133;28;20028;-66
2023/09/27 09:02:57;;;;;;;0.75;0.30;;;;;;;22.41;68.39;101116.31;5059905;28;20051;-69
2023/09/27 09:05:24;;;;;;;1.20;0.50;;;;;;;22.36;67.00;101125.91;5061301;28;20071;-67
2023/09/27 09:07:50;;;;;;;1.00;0.50;;;;;;;23.08;62.31;101120.44;5059541;28;20373;-67
2023/09/27 09:10:17;;;;;;;3.25;0.30;;;;;;;23.66;56.00;101123.00;5061764;28;20075;-68
2023/09/27 09:12:44;;;;;;;4.20;0.50;;;;;;;23.97;56.54;101116.88;5058490;28;20025;-67
2023/09/27 09:15:14;;;;;;;1.92;0.75;;;;;;;24.25;53.09;101119.09;5060261;28;20468;-66
2023/09/27 09:17:47;;;;;;;1.45;0.32;;;;;;;24.51;53.42;101112.72;5058490;28;20370;-66
2023/09/27 09:20:20;;;;;;;2.65;0.40;;;;;;;24.52;53.46;101138.31;5059992;28;20037;-67
2023/09/27 09:22:46;;;;;;;6.07;0.50;;;;;;;24.55;52.76;101118.44;5058007;28;20411;-66
2023/09/27 09:25:12;;;;;;;5.70;0.40;;;;;;;24.52;53.18;101125.00;5060222;28;20033;-66
2023/09/27 09:27:37;;;;;;;2.25;0.40;;;;;;;24.67;50.93;101121.97;5061908;28;20029;-65
2023/09/27 09:30:06;;;;;;;1.50;0.32;;;;;;;24.65;52.76;101116.03;5057144;28;20071;-66
2023/09/27 09:32:32;;;;;;;1.30;0.40;;;;;;;24.80;51.35;101117.31;5057926;28;20090;-65
2023/09/27 09:34:57;;;;;;;1.73;0.30;;;;;;;24.78;52.14;101099.91;5061963;28;20025;-66
2023/09/27 09:37:24;;;;;;;2.60;0.50;;;;;;;24.93;49.24;101100.34;5058264;28;20036;-66
2023/09/27 09:39:52;;;;;;;2.40;0.40;;;;;;;25.02;47.92;101106.25;5056456;28;20116;-66
2023/09/27 09:42:34;;;;;;;1.45;0.65;;;;;;;24.95;48.42;101114.28;5057536;28;20460;-66
2023/09/27 09:45:08;;;;;;;2.22;0.40;;;;;;;24.93;49.86;101115.53;5066747;28;20118;-69
2023/09/27 09:47:37;;;;;;;3.00;0.30;;;;;;;24.83;54.02;101116.06;5062497;28;20020;-66
2023/09/27 09:50:06;;;;;;;2.22;0.50;;;;;;;24.82;51.36;101109.09;5054102;28;20114;-66
2023/09/27 09:52:35;;;;;;;3.50;0.50;;;;;;;24.96;49.83;101102.63;5056959;28;20039;-67
2023/09/27 09:55:03;;;;;;;0.70;0.30;;;;;;;25.08;51.75;101102.66;5059698;28;20467;-66
2023/09/27 09:57:35;;;;;;;2.75;0.40;;;;;;;25.06;47.84;101108.19;5053478;28;20040;-66
2023/09/27 10:00:12;;;;;;;1.92;0.35;;;;;;;25.14;49.63;101104.41;5054571;28;20024;-65
2023/09/27 10:02:46;;;;;;;1.95;0.50;;;;;;;25.17;47.19;101100.50;5058409;28;20090;-66
2023/09/27 10:05:13;;;;;;;6.65;0.85;;;;;;;25.27;46.59;101106.91;5055833;28;20508;-67
2023/09/27 10:07:42;;;;;;;0.75;0.25;;;;;;;25.37;45.91;101095.72;5053673;28;20037;-66
2023/09/27 10:10:08;;;;;;;3.10;0.50;;;;;;;25.34;44.83;101088.16;5059558;28;20029;-66
2023/09/27 10:12:34;;;;;;;4.10;0.30;;;;;;;25.27;48.18;101090.09;5058924;28;20033;-67
2023/09/27 10:15:01;;;;;;;1.80;0.45;;;;;;;25.25;45.95;101087.66;5071556;28;20170;-67
2023/09/27 10:17:29;;;;;;;2.00;0.60;;;;;;;25.23;47.39;101088.94;5070412;28;20036;-73
2023/09/27 10:20:19;;;;;;;1.10;0.40;;;;;;;25.27;44.30;101093.59;5072572;28;20029;-71
2023/09/27 10:22:46;;;;;;;0.80;0.30;;;;;;;25.30;46.68;101085.13;5068070;28;20056;-69
2023/09/27 10:25:38;;;;;;;2.10;0.40;;;;;;;25.29;46.18;101082.69;5070532;28;20033;-68
2023/09/27 10:28:04;;;;;;;1.55;0.30;;;;;;;25.35;47.14;101085.28;5068628;28;20041;-70
2023/09/27 10:31:06;;;;;;;0.98;0.35;;;;;;;25.39;45.60;101082.97;5069525;28;20102;-69
2023/09/27 10:33:32;;;;;;;1.25;0.55;;;;;;;25.40;48.09;101074.72;5066636;28;20052;-69
2023/09/27 10:36:03;;;;;;;1.23;0.22;;;;;;;25.31;49.06;101076.09;5070025;28;20029;-69
2023/09/27 10:38:41;;;;;;;1.33;0.30;;;;;;;25.46;43.42;101068.50;5068660;28;20094;-70
2023/09/27 10:41:07;;;;;;;1.20;0.38;;;;;;;25.65;44.49;101068.44;5070038;28;20040;-70
2023/09/27 10:43:32;;;;;;;2.60;0.50;;;;;;;25.71;46.74;101064.84;5067988;28;20028;-68
2023/09/27 10:45:59;;;;;;;1.52;0.20;;;;;;;25.78;45.73;101070.88;5069504;28;20043;-68
2023/09/27 10:48:25;;;;;;;1.42;0.30;;;;;;;25.76;45.39;101057.78;5067817;28;20126;-67
2023/09/27 10:50:58;;;;;;;1.05;0.30;;;;;;;25.69;43.70;101067.75;5068519;28;20145;-67
2023/09/27 10:53:24;;;;;;;4.30;0.40;;;;;;;25.76;45.99;101059.63;5068647;28;20067;-67
2023/09/27 10:55:50;;;;;;;4.30;0.40;;;;;;;25.73;45.08;101050.22;5068497;28;20044;-68
2023/09/27 10:58:17;;;;;;;2.28;0.40;;;;;;;25.73;42.67;101052.91;5069812;28;20097;-68
2023/09/27 11:00:54;;;;;;;2.25;0.30;;;;;;;25.87;40.49;101061.50;5064690;28;20064;-70
2023/09/27 11:03:21;;;;;;;1.33;0.20;;;;;;;25.96;42.57;101062.78;5064932;28;20058;-70
2023/09/27 11:05:46;;;;;;;1.15;0.30;;;;;;;26.10;42.65;101042.00;5064559;28;20028;-67
2023/09/27 11:08:19;;;;;;;1.00;0.30;;;;;;;25.91;40.12;101045.84;5060596;28;20079;-68
2023/09/27 11:10:45;;;;;;;2.55;0.32;;;;;;;25.89;40.99;101040.75;5065224;28;20098;-68
2023/09/27 11:13:12;;;;;;;0.90;0.30;;;;;;;26.02;42.22;101050.34;5059262;28;20025;-68
2023/09/27 11:15:41;;;;;;;0.70;0.30;;;;;;;25.93;42.34;101057.91;5059452;28;24633;-66
2023/09/27 11:18:08;;;;;;;1.40;0.40;;;;;;;26.01;41.81;101049.53;5058069;28;20545;-67
2023/09/27 11:20:34;;;;;;;0.93;0.40;;;;;;;26.09;41.13;101053.72;5057203;28;20468;-69
2023/09/27 11:23:02;;;;;;;0.70;0.28;;;;;;;26.06;41.68;101040.84;5062622;28;20036;-71
2023/09/27 11:25:28;;;;;;;3.80;0.30;;;;;;;26.15;39.91;101055.47;5064483;28;20085;-70